Time;durP1;ratioP1;P1;durP2;ratioP2;P2;SDS_P1;SDS_P2;PMS_P1;PMS_P2;Temp;Humidity;BMP_temperature;BMP_pressure;BME280_temperature;BME280_humidity;BME280_pressure;Samples;Min_cycle;Max_cycle;Signal;HPM_P1;HPM_P2
2023/03/23 00:02:16;;;;;;;24.67;15.20;;;;;;;10.97;89.53;96929.34;4897485;29;20200;-74
2023/03/23 00:04:42;;;;;;;26.90;15.13;;;;;;;11.03;89.00;96942.84;4907009;29;20558;-75
2023/03/23 00:07:08;;;;;;;26.93;14.70;;;;;;;10.87;89.55;96920.34;4892568;29;20232;-76
2023/03/23 00:09:40;;;;;;;27.07;16.20;;;;;;;10.92;89.41;96936.53;4892536;29;20265;-79
2023/03/23 00:12:07;;;;;;;23.93;15.13;;;;;;;10.71;90.68;96920.25;4891524;29;20188;-75
2023/03/23 00:14:41;;;;;;;27.70;16.97;;;;;;;10.85;90.73;96915.25;4892613;29;20661;-76
2023/03/23 00:17:14;;;;;;;24.13;15.73;;;;;;;10.86;90.30;96911.72;4893168;29;20686;-78
2023/03/23 00:19:46;;;;;;;26.20;16.77;;;;;;;10.85;90.29;96914.41;4892898;29;20681;-76
2023/03/23 00:22:14;;;;;;;29.10;16.80;;;;;;;10.68;90.81;96904.84;4877297;29;20204;-78
2023/03/23 00:24:41;;;;;;;26.40;15.87;;;;;;;10.71;90.63;96902.13;4872772;29;20200;-77
2023/03/23 00:27:08;;;;;;;23.67;15.80;;;;;;;10.89;90.79;96903.81;4887202;29;20255;-77
2023/03/23 00:29:35;;;;;;;27.67;16.83;;;;;;;10.92;90.14;96908.84;4891593;29;20208;-74
2023/03/23 00:32:01;;;;;;;26.73;16.83;;;;;;;10.78;90.14;96892.31;4895644;29;20674;-78
2023/03/23 00:34:32;;;;;;;29.53;16.93;;;;;;;10.98;90.29;96908.56;4910716;29;20280;-77
2023/03/23 00:36:58;;;;;;;26.80;15.73;;;;;;;10.90;89.93;96907.25;4894043;29;20770;-77
2023/03/23 00:39:27;;;;;;;27.20;16.63;;;;;;;10.96;89.85;96905.22;4896623;29;20206;-76
2023/03/23 00:42:00;;;;;;;29.90;18.47;;;;;;;10.71;89.76;96902.13;4892923;29;20213;-75
2023/03/23 00:44:34;;;;;;;28.23;17.13;;;;;;;10.69;90.43;96906.56;4877568;29;20192;-74
2023/03/23 00:47:02;;;;;;;30.93;17.33;;;;;;;10.61;91.27;96903.50;4890904;29;20797;-79
2023/03/23 00:49:34;;;;;;;29.30;16.33;;;;;;;10.57;91.25;96899.38;4891227;29;20199;-73
2023/03/23 00:52:00;;;;;;;24.73;15.80;;;;;;;10.44;91.80;96898.28;4877540;29;20581;-74
2023/03/23 00:54:27;;;;;;;27.50;16.77;;;;;;;10.49;92.66;96906.63;4876285;29;20201;-74
2023/03/23 00:56:53;;;;;;;28.57;16.87;;;;;;;10.52;92.29;96909.09;4892074;29;20215;-74
2023/03/23 00:59:20;;;;;;;27.27;16.53;;;;;;;10.53;92.81;96903.03;4876019;29;20194;-75
2023/03/23 01:01:47;;;;;;;28.23;17.10;;;;;;;10.34;93.30;96897.88;4877433;29;20215;-75
2023/03/23 01:04:14;;;;;;;25.07;15.63;;;;;;;10.37;92.87;96891.69;4906330;29;20260;-75
2023/03/23 01:06:44;;;;;;;27.00;16.77;;;;;;;10.61;92.10;96906.09;4875523;29;20259;-77
2023/03/23 01:09:17;;;;;;;27.10;16.97;;;;;;;10.64;92.24;96898.16;4894662;29;20248;-76
2023/03/23 01:11:44;;;;;;;31.83;18.47;;;;;;;10.65;92.08;96905.03;4894786;29;20214;-77
2023/03/23 01:14:11;;;;;;;32.60;19.27;;;;;;;10.69;92.38;96903.97;4879076;29;20206;-77
2023/03/23 01:16:37;;;;;;;34.07;18.67;;;;;;;10.62;91.74;96905.16;4894524;29;20228;-76
2023/03/23 01:19:03;;;;;;;32.87;19.07;;;;;;;10.55;92.60;96903.78;4894712;29;20246;-78
2023/03/23 01:21:30;;;;;;;33.17;17.83;;;;;;;10.53;91.56;96885.72;4894844;29;20702;-77
2023/03/23 01:23:55;;;;;;;32.17;18.13;;;;;;;10.61;91.21;96900.91;4900366;29;20283;-74
2023/03/23 01:26:26;;;;;;;29.60;17.90;;;;;;;10.69;91.50;96905.69;4912244;29;20327;-74
2023/03/23 01:28:52;;;;;;;28.87;18.13;;;;;;;10.67;91.25;96897.16;4887135;29;20576;-74
2023/03/23 01:31:21;;;;;;;28.90;16.07;;;;;;;10.65;92.16;96903.25;4897312;29;20686;-75
2023/03/23 01:33:50;;;;;;;27.93;17.17;;;;;;;10.73;91.51;96900.31;4878928;29;20191;-75
2023/03/23 01:36:19;;;;;;;30.40;16.80;;;;;;;10.73;90.62;96905.50;4879014;29;20196;-76
2023/03/23 01:38:47;;;;;;;29.00;16.50;;;;;;;10.74;91.68;96898.56;4862309;29;20665;-75
2023/03/23 01:41:14;;;;;;;27.43;16.90;;;;;;;10.59;91.46;96897.53;4878098;29;20204;-75
2023/03/23 01:43:57;;;;;;;29.70;17.37;;;;;;;10.60;91.69;96887.09;4878452;29;20583;-76
2023/03/23 01:46:30;;;;;;;29.13;17.67;;;;;;;10.56;91.92;96901.13;4910512;29;20229;-77
2023/03/23 01:49:00;;;;;;;32.00;18.23;;;;;;;10.29;92.82;96904.16;4916059;29;20703;-76
2023/03/23 01:51:27;;;;;;;29.90;18.87;;;;;;;10.16;93.36;96862.47;4931800;29;20719;-79
2023/03/23 01:54:00;;;;;;;31.70;18.30;;;;;;;10.26;93.46;96881.03;4916035;29;20569;-75
2023/03/23 01:56:32;;;;;;;36.17;19.23;;;;;;;10.16;93.62;96908.25;4915429;29;20194;-76
2023/03/23 01:58:59;;;;;;;35.50;19.07;;;;;;;9.82;94.31;96823.56;4930847;29;20190;-79
2023/03/23 02:01:26;;;;;;;37.73;19.40;;;;;;;10.15;94.48;96880.69;4916191;29;20184;-78
2023/03/23 02:03:55;;;;;;;30.90;17.83;;;;;;;10.26;93.44;96888.78;4931540;29;20215;-74
2023/03/23 02:06:23;;;;;;;28.70;17.23;;;;;;;10.08;93.59;96863.72;4915688;29;20232;-80
2023/03/23 02:09:11;;;;;;;32.57;18.00;;;;;;;10.35;92.96;96889.19;4931826;29;20706;-75
2023/03/23 02:11:37;;;;;;;35.27;19.53;;;;;;;10.35;92.26;96894.38;4932269;29;20225;-79
2023/03/23 02:14:03;;;;;;;31.47;18.83;;;;;;;10.12;93.41;96878.25;4900000;29;20207;-74
2023/03/23 02:16:55;;;;;;;29.23;16.67;;;;;;;10.33;93.10;96897.94;4914527;29;20193;-77
2023/03/23 02:19:41;;;;;;;30.63;16.57;;;;;;;10.45;92.90;96894.75;4900129;29;20202;-76
2023/03/23 02:22:17;;;;;;;25.67;14.77;;;;;;;10.45;91.09;96903.38;4914717;29;20294;-79
2023/03/23 02:24:58;;;;;;;26.23;15.70;;;;;;;10.48;90.96;96899.81;4915001;29;20273;-78
2023/03/23 02:27:42;;;;;;;24.03;14.83;;;;;;;10.55;90.46;96904.59;4915269;29;20221;-77
2023/03/23 02:30:15;;;;;;;21.77;12.43;;;;;;;10.68;89.90;96901.41;4930862;29;20205;-78
2023/03/23 02:33:11;;;;;;;18.03;12.13;;;;;;;10.70;88.53;96910.81;4932382;29;20262;-74
2023/03/23 02:35:54;;;;;;;18.33;12.07;;;;;;;10.70;87.18;96913.38;4914747;29;20288;-75
2023/03/23 02:38:38;;;;;;;14.70;9.57;;;;;;;10.73;86.56;96910.66;4914134;29;20594;-78
2023/03/23 02:41:04;;;;;;;15.57;10.03;;;;;;;10.72;86.80;96908.97;4899479;29;20187;-79
2023/03/23 02:43:37;;;;;;;14.77;10.07;;;;;;;10.69;86.63;96910.88;4931123;29;20576;-78
2023/03/23 02:46:06;;;;;;;19.50;11.27;;;;;;;10.72;86.37;96923.66;4930677;29;20224;-77
2023/03/23 02:48:33;;;;;;;15.43;10.60;;;;;;;10.68;86.24;96914.38;4932325;29;20246;-79
2023/03/23 02:51:01;;;;;;;13.73;8.87;;;;;;;10.52;85.01;96916.88;4930558;29;20236;-77
2023/03/23 02:53:29;;;;;;;8.53;6.67;;;;;;;10.42;83.58;96911.28;4932051;29;20193;-78
2023/03/23 02:55:57;;;;;;;12.37;5.63;;;;;;;10.49;82.45;96919.59;4913419;29;20199;-73
2023/03/23 02:58:27;;;;;;;7.73;6.07;;;;;;;10.54;82.22;96917.63;4899378;29;20667;-74
2023/03/23 03:00:56;;;;;;;8.80;5.70;;;;;;;10.57;82.51;96925.25;4913396;29;20691;-75
2023/03/23 03:03:27;;;;;;;8.47;6.50;;;;;;;10.58;83.19;96929.53;4930172;29;20186;-75
2023/03/23 03:06:06;;;;;;;12.03;8.37;;;;;;;10.54;84.38;96928.00;4914133;29;20237;-73
2023/03/23 03:08:59;;;;;;;16.37;10.07;;;;;;;10.57;85.40;96931.25;4932678;29;20213;-79
2023/03/23 03:11:25;;;;;;;12.50;7.87;;;;;;;10.38;83.86;96940.81;4921595;29;20229;-74
2023/03/23 03:14:04;;;;;;;10.03;6.93;;;;;;;10.38;83.47;96939.97;4914699;29;20284;-77
2023/03/23 03:17:03;;;;;;;8.20;6.47;;;;;;;10.33;82.92;96929.84;4898725;29;20193;-79
2023/03/23 03:19:34;;;;;;;7.97;6.07;;;;;;;10.33;82.45;96937.59;4930117;29;20186;-77
2023/03/23 03:22:00;;;;;;;10.33;6.40;;;;;;;10.47;82.00;96927.44;4913186;29;20205;-79
2023/03/23 03:24:38;;;;;;;9.73;6.40;;;;;;;10.48;82.02;96926.53;4916038;29;20190;-76
2023/03/23 03:27:14;;;;;;;10.70;7.57;;;;;;;10.56;82.00;96919.25;4927268;29;20405;-77
2023/03/23 03:30:05;;;;;;;11.50;8.00;;;;;;;10.75;82.28;96939.91;4910766;29;20223;-76
2023/03/23 03:32:39;;;;;;;10.33;7.33;;;;;;;10.77;81.99;96932.91;4915752;29;20199;-73
2023/03/23 03:35:06;;;;;;;11.10;7.83;;;;;;;10.66;82.32;96935.16;4910024;29;20186;-75
2023/03/23 03:37:37;;;;;;;10.90;7.43;;;;;;;10.58;81.86;96932.94;4911233;29;20202;-76
2023/03/23 03:40:11;;;;;;;11.17;7.77;;;;;;;10.62;82.09;96938.81;4894462;29;20190;-76
2023/03/23 03:42:40;;;;;;;11.00;6.80;;;;;;;10.53;81.89;96939.28;4894699;29;20205;-74
2023/03/23 03:45:11;;;;;;;9.90;7.40;;;;;;;10.56;82.25;96949.47;4895153;29;20218;-81
2023/03/23 03:47:37;;;;;;;5.93;4.67;;;;;;;10.53;81.11;96947.84;4909549;29;20191;-75
2023/03/23 03:50:04;;;;;;;7.27;4.90;;;;;;;10.48;81.36;96949.00;4910811;29;20254;-79
2023/03/23 03:52:31;;;;;;;4.93;3.47;;;;;;;10.45;80.51;96955.16;4909557;29;20247;-78
2023/03/23 03:54:58;;;;;;;3.63;2.83;;;;;;;10.22;81.11;96924.31;4894874;29;20190;-78
2023/03/23 03:57:24;;;;;;;3.20;2.33;;;;;;;10.29;80.64;96940.41;4894201;29;20294;-76
2023/03/23 04:00:14;;;;;;;2.63;2.33;;;;;;;10.39;80.47;96952.84;4910957;29;20186;-75
2023/03/23 04:02:54;;;;;;;3.37;2.87;;;;;;;10.41;80.26;96955.34;4910524;29;20205;-73
2023/03/23 04:05:41;;;;;;;2.67;2.30;;;;;;;10.28;80.33;96954.25;4900087;29;20292;-75
2023/03/23 04:08:07;;;;;;;4.37;3.00;;;;;;;10.13;80.68;96954.94;4910238;29;20207;-73
2023/03/23 04:10:33;;;;;;;4.97;3.77;;;;;;;10.08;81.13;96956.84;4910051;29;20197;-74
2023/03/23 04:13:00;;;;;;;4.33;3.37;;;;;;;10.00;81.49;96954.63;4893995;29;20214;-72
2023/03/23 04:15:46;;;;;;;5.93;4.07;;;;;;;10.11;81.90;96959.34;4906201;29;20190;-73
2023/03/23 04:18:14;;;;;;;5.93;4.30;;;;;;;10.05;82.19;96949.25;4902413;29;20203;-72
2023/03/23 04:20:44;;;;;;;6.00;4.37;;;;;;;9.98;82.40;96945.25;4895862;29;20325;-74
2023/03/23 04:23:10;;;;;;;6.03;4.53;;;;;;;9.95;82.99;96956.59;4880986;29;20290;-74
2023/03/23 04:25:36;;;;;;;8.40;5.07;;;;;;;9.96;83.29;96958.25;4866717;29;20769;-76
2023/03/23 04:28:04;;;;;;;5.50;4.00;;;;;;;9.93;82.74;96975.66;4887817;29;20207;-76
2023/03/23 04:30:37;;;;;;;6.10;4.57;;;;;;;9.74;82.90;96944.59;4887002;29;20271;-74
2023/03/23 04:33:06;;;;;;;7.30;5.17;;;;;;;9.92;82.98;96969.66;4888062;29;20284;-74
2023/03/23 04:35:33;;;;;;;6.53;4.57;;;;;;;9.81;83.07;96970.13;4872677;29;20284;-76
2023/03/23 04:38:11;;;;;;;6.67;4.27;;;;;;;9.80;83.52;96978.78;4903903;29;20201;-73
2023/03/23 04:40:40;;;;;;;6.20;4.40;;;;;;;9.89;82.99;96974.13;4872029;29;20204;-74
2023/03/23 04:43:24;;;;;;;6.10;4.40;;;;;;;9.98;82.66;96973.69;4886857;29;20192;-76
2023/03/23 04:46:11;;;;;;;6.60;4.90;;;;;;;9.94;82.96;96967.84;4872373;29;20233;-73
2023/03/23 04:48:39;;;;;;;6.23;4.23;;;;;;;9.96;83.10;96970.34;4871279;29;20206;-77
2023/03/23 04:51:18;;;;;;;5.10;3.90;;;;;;;9.92;82.28;96963.63;4883394;29;20730;-78
2023/03/23 04:53:48;;;;;;;5.43;4.00;;;;;;;9.75;82.52;96928.16;4888160;29;20196;-78
2023/03/23 04:56:14;;;;;;;6.03;4.10;;;;;;;9.99;82.60;96967.63;4892434;29;20202;-74
2023/03/23 04:58:44;;;;;;;5.27;3.90;;;;;;;9.80;82.46;96934.00;4909595;29;20225;-75
2023/03/23 05:01:31;;;;;;;6.00;4.20;;;;;;;10.03;81.72;96958.81;4908312;29;20583;-77
2023/03/23 05:04:19;;;;;;;6.43;3.70;;;;;;;10.13;81.51;96967.88;4907688;29;20205;-74
2023/03/23 05:06:57;;;;;;;3.73;3.07;;;;;;;10.21;80.64;96978.72;4909523;29;20233;-75
2023/03/23 05:09:26;;;;;;;4.77;3.50;;;;;;;10.33;80.72;96988.50;4908598;29;20183;-75
2023/03/23 05:11:52;;;;;;;2.97;2.57;;;;;;;10.23;80.47;96976.91;4909574;29;20692;-76
2023/03/23 05:14:18;;;;;;;3.23;2.47;;;;;;;10.36;80.70;96989.25;4892645;29;20205;-78
2023/03/23 05:16:53;;;;;;;4.17;2.40;;;;;;;10.35;80.08;96986.69;4910716;29;20194;-77
2023/03/23 05:19:20;;;;;;;3.27;2.70;;;;;;;10.30;80.30;96996.44;4912024;29;20201;-79
2023/03/23 05:21:47;;;;;;;4.77;3.07;;;;;;;10.44;80.81;96986.28;4913989;29;20183;-75
2023/03/23 05:24:12;;;;;;;4.47;3.17;;;;;;;10.42;79.76;96983.78;4889512;29;20207;-73
2023/03/23 05:26:40;;;;;;;5.33;3.27;;;;;;;10.48;80.42;97000.78;4877906;29;20248;-75
2023/03/23 05:29:15;;;;;;;7.23;5.47;;;;;;;10.65;80.07;96999.06;4893934;29;20729;-75
2023/03/23 05:31:52;;;;;;;5.93;4.53;;;;;;;10.71;79.91;96987.59;4897387;29;20259;-78
2023/03/23 05:34:19;;;;;;;6.13;4.87;;;;;;;10.94;79.24;97000.28;4913081;29;20196;-78
2023/03/23 05:36:49;;;;;;;7.40;5.40;;;;;;;10.86;79.15;96994.63;4911966;29;20849;-80
2023/03/23 05:39:29;;;;;;;7.27;5.13;;;;;;;11.24;78.39;97009.19;4911345;29;20195;-77
2023/03/23 05:42:06;;;;;;;7.53;5.37;;;;;;;11.45;77.53;97010.72;4912574;29;20186;-75
2023/03/23 05:44:48;;;;;;;10.00;5.90;;;;;;;11.53;76.84;97006.91;4908026;29;20204;-77
2023/03/23 05:47:14;;;;;;;6.67;5.13;;;;;;;11.68;76.96;97011.34;4909201;29;20227;-75
2023/03/23 05:49:48;;;;;;;3.77;2.33;;;;;;;11.50;74.40;97015.66;4877032;29;20299;-78
2023/03/23 05:52:18;;;;;;;1.60;1.50;;;;;;;11.44;73.00;97022.00;4892785;29;20738;-79
2023/03/23 05:54:45;;;;;;;1.50;1.30;;;;;;;11.35;73.04;97022.44;4877696;29;20204;-76
2023/03/23 05:57:12;;;;;;;1.83;1.37;;;;;;;11.11;72.80;97015.88;4861087;29;20231;-76
2023/03/23 05:59:49;;;;;;;1.30;1.20;;;;;;;11.01;72.52;97025.00;4893427;29;20284;-78
2023/03/23 06:02:23;;;;;;;2.27;1.20;;;;;;;10.90;73.36;97040.19;4900977;29;20694;-75
2023/03/23 06:04:57;;;;;;;1.37;1.27;;;;;;;10.84;73.63;97042.25;4896273;29;20302;-73
2023/03/23 06:07:29;;;;;;;1.83;1.40;;;;;;;10.88;73.98;97046.38;4911902;29;20222;-74
2023/03/23 06:10:01;;;;;;;1.60;1.10;;;;;;;10.90;73.99;97036.78;4895955;29;20203;-78
2023/03/23 06:12:39;;;;;;;1.53;1.20;;;;;;;10.88;74.69;97043.78;4911896;29;20335;-74
2023/03/23 06:15:24;;;;;;;1.17;1.00;;;;;;;10.89;75.46;97046.31;4910885;29;20194;-79
2023/03/23 06:18:17;;;;;;;1.20;1.10;;;;;;;10.85;74.85;97034.41;4911353;29;20306;-73
2023/03/23 06:21:03;;;;;;;1.37;1.10;;;;;;;10.97;76.01;97049.38;4911702;29;20206;-77
2023/03/23 06:24:05;;;;;;;1.27;0.93;;;;;;;10.97;76.35;97035.56;4909306;29;20246;-77
2023/03/23 06:26:33;;;;;;;2.20;1.43;;;;;;;10.99;76.15;97026.81;4925473;29;20234;-77
2023/03/23 06:29:10;;;;;;;1.23;1.07;;;;;;;11.16;75.94;97044.16;4913509;29;20572;-77
2023/03/23 06:31:43;;;;;;;1.83;1.20;;;;;;;11.14;75.68;97058.94;4913480;29;20591;-78
2023/03/23 06:34:09;;;;;;;3.23;1.40;;;;;;;11.27;75.50;97052.28;4898934;29;20218;-75
2023/03/23 06:37:12;;;;;;;1.10;1.00;;;;;;;11.16;75.81;97045.00;4871697;29;20200;-75
2023/03/23 06:39:49;;;;;;;1.03;0.90;;;;;;;11.23;75.06;97046.38;4906753;29;20205;-77
2023/03/23 06:42:41;;;;;;;1.20;1.00;;;;;;;11.25;76.05;97048.91;4927795;29;20228;-76
2023/03/23 06:45:25;;;;;;;1.30;1.10;;;;;;;11.32;74.83;97040.75;4915728;29;20186;-78
2023/03/23 06:48:04;;;;;;;1.20;1.07;;;;;;;11.46;74.49;97050.44;4929665;29;20651;-75
2023/03/23 06:50:31;;;;;;;2.80;1.40;;;;;;;11.32;75.08;97040.75;4898425;29;20198;-78
2023/03/23 06:52:58;;;;;;;1.13;1.00;;;;;;;11.50;73.65;97064.94;4897707;29;20716;-79
2023/03/23 06:55:24;;;;;;;1.40;1.20;;;;;;;11.41;74.20;97065.41;4914202;29;20216;-79
2023/03/23 06:57:50;;;;;;;1.77;1.43;;;;;;;11.42;74.90;97065.31;4912967;29;20203;-78
2023/03/23 07:00:16;;;;;;;1.57;1.30;;;;;;;11.37;74.73;97056.91;4946201;29;20198;-77
2023/03/23 07:02:44;;;;;;;1.37;1.27;;;;;;;11.39;74.37;97065.47;4929032;29;20203;-78
2023/03/23 07:05:11;;;;;;;1.30;1.20;;;;;;;11.52;75.07;97065.69;4914132;29;20724;-76
2023/03/23 07:07:39;;;;;;;1.80;1.23;;;;;;;11.43;73.82;97050.59;4897685;29;20209;-77
2023/03/23 07:10:28;;;;;;;1.53;1.43;;;;;;;11.62;74.72;97073.88;4924464;29;20237;-76
2023/03/23 07:12:55;;;;;;;1.30;1.20;;;;;;;11.15;74.01;97045.06;4898413;29;20198;-76
2023/03/23 07:15:21;;;;;;;1.97;1.50;;;;;;;11.32;74.30;97077.06;4912300;29;20733;-78
2023/03/23 07:17:50;;;;;;;1.77;1.60;;;;;;;11.41;74.07;97071.44;4898868;29;20316;-74
2023/03/23 07:20:27;;;;;;;1.87;1.43;;;;;;;11.54;73.33;97081.22;4913224;29;20218;-75
2023/03/23 07:22:54;;;;;;;2.37;1.40;;;;;;;11.43;71.93;97069.59;4913124;29;20194;-79
2023/03/23 07:25:48;;;;;;;2.63;1.93;;;;;;;11.57;72.17;97087.06;4927603;29;20245;-76
2023/03/23 07:28:19;;;;;;;2.20;1.87;;;;;;;11.45;71.90;97091.13;4896383;29;20275;-74
2023/03/23 07:30:46;;;;;;;2.53;1.87;;;;;;;11.41;71.34;97091.31;4898021;29;20243;-79
2023/03/23 07:33:12;;;;;;;2.73;2.43;;;;;;;11.36;70.98;97078.59;4913025;29;20275;-77
2023/03/23 07:35:39;;;;;;;4.17;3.10;;;;;;;11.51;71.46;97102.09;4902802;29;20203;-76
2023/03/23 07:38:11;;;;;;;4.60;2.80;;;;;;;11.43;71.51;97094.69;4879778;29;20193;-80
2023/03/23 07:40:38;;;;;;;2.73;2.43;;;;;;;11.46;70.59;97110.94;4893357;29;20209;-79
2023/03/23 07:43:11;;;;;;;3.50;2.20;;;;;;;11.48;71.46;97109.09;4894944;29;20203;-76
2023/03/23 07:45:56;;;;;;;3.17;2.50;;;;;;;11.67;70.33;97103.03;4895942;29;20234;-76
2023/03/23 07:48:25;;;;;;;4.23;2.70;;;;;;;11.76;70.29;97112.97;4910124;29;20195;-78
2023/03/23 07:50:52;;;;;;;3.80;3.20;;;;;;;11.68;70.29;97104.75;4893988;29;20199;-79
2023/03/23 07:53:18;;;;;;;3.30;2.77;;;;;;;11.70;69.69;97100.31;4910446;29;20196;-78
2023/03/23 07:55:52;;;;;;;3.40;3.10;;;;;;;11.74;70.03;97086.28;4890997;29;20245;-79
2023/03/23 07:58:51;;;;;;;4.60;3.20;;;;;;;12.00;69.99;97109.16;4887956;29;20232;-77
2023/03/23 08:01:18;;;;;;;5.40;2.80;;;;;;;12.08;68.17;97114.81;4894363;29;20230;-80
2023/03/23 08:04:00;;;;;;;5.87;3.47;;;;;;;12.04;68.94;97113.28;4880290;29;20232;-79
2023/03/23 08:06:52;;;;;;;3.40;3.10;;;;;;;12.07;67.73;97115.75;4853766;29;20261;-78
2023/03/23 08:09:44;;;;;;;4.70;3.30;;;;;;;12.01;68.14;97123.84;4908359;29;20202;-78
2023/03/23 08:12:38;;;;;;;4.40;3.20;;;;;;;11.90;68.05;97100.16;4895407;29;20213;-74
2023/03/23 08:15:23;;;;;;;6.23;4.27;;;;;;;12.12;67.50;97121.53;4895471;29;20204;-77
2023/03/23 08:18:05;;;;;;;5.93;4.17;;;;;;;12.06;67.98;97134.81;4880536;29;20204;-75
2023/03/23 08:20:32;;;;;;;7.03;4.00;;;;;;;12.11;67.79;97131.09;4892916;29;20192;-79
2023/03/23 08:23:20;;;;;;;6.43;4.47;;;;;;;12.13;68.39;97128.41;4894051;29;20191;-74
2023/03/23 08:25:46;;;;;;;7.27;4.90;;;;;;;11.97;68.27;97132.69;4893652;29;20648;-79
2023/03/23 08:28:18;;;;;;;6.00;4.93;;;;;;;11.95;68.68;97134.53;4893794;29;20663;-76
2023/03/23 08:31:12;;;;;;;6.50;4.87;;;;;;;11.90;68.77;97137.34;4901976;29;20187;-77
2023/03/23 08:33:51;;;;;;;7.00;4.40;;;;;;;11.64;68.87;97110.97;4927980;29;20230;-75
2023/03/23 08:36:37;;;;;;;6.87;5.50;;;;;;;11.72;68.87;97132.22;4903139;29;20196;-73
2023/03/23 08:39:35;;;;;;;7.17;4.73;;;;;;;11.73;68.45;97131.28;4877937;29;20296;-76
2023/03/23 08:42:25;;;;;;;7.00;4.80;;;;;;;11.89;68.21;97137.41;4884345;29;20593;-76
2023/03/23 08:45:08;;;;;;;8.03;4.93;;;;;;;12.07;66.66;97134.75;4893846;29;20254;-74
2023/03/23 08:48:03;;;;;;;10.17;6.67;;;;;;;12.39;66.61;97134.84;4882234;29;20208;-75
2023/03/23 08:50:43;;;;;;;5.27;4.47;;;;;;;12.48;65.07;97135.25;4892614;29;20197;-75
2023/03/23 08:53:22;;;;;;;6.70;5.30;;;;;;;12.50;65.92;97128.22;4883414;29;20218;-75
2023/03/23 08:56:04;;;;;;;6.87;4.27;;;;;;;12.59;64.53;97143.28;4896834;29;20198;-76
2023/03/23 08:58:45;;;;;;;7.53;5.80;;;;;;;12.60;64.44;97141.53;4896043;29;20239;-74
2023/03/23 09:01:43;;;;;;;7.47;5.27;;;;;;;12.47;65.09;97138.75;4880716;29;20622;-75
2023/03/23 09:04:44;;;;;;;6.37;4.60;;;;;;;12.66;64.79;97146.41;4895103;29;20278;-77
2023/03/23 09:07:28;;;;;;;13.23;5.70;;;;;;;12.63;65.02;97142.22;4912544;29;20378;-75
2023/03/23 09:09:54;;;;;;;6.50;4.97;;;;;;;12.65;63.54;97137.78;4896325;29;20609;-73
2023/03/23 09:12:20;;;;;;;6.33;4.33;;;;;;;12.47;63.47;97145.72;4912844;29;20260;-77
2023/03/23 09:14:52;;;;;;;8.37;5.53;;;;;;;12.35;64.87;97138.53;4913851;29;20193;-75
2023/03/23 09:17:18;;;;;;;9.90;5.73;;;;;;;12.31;64.96;97140.44;4880794;29;20191;-77
2023/03/23 09:19:44;;;;;;;9.73;5.77;;;;;;;12.40;64.54;97139.16;4913059;29;20221;-78
2023/03/23 09:22:10;;;;;;;5.67;4.90;;;;;;;12.48;63.73;97145.63;4914448;29;20531;-74
2023/03/23 09:24:37;;;;;;;6.40;4.97;;;;;;;12.39;63.21;97150.44;4895423;29;20279;-76
2023/03/23 09:27:04;;;;;;;6.30;4.83;;;;;;;12.46;63.90;97147.47;4913541;29;20316;-76
2023/03/23 09:29:30;;;;;;;5.93;4.83;;;;;;;12.24;63.24;97147.69;4912627;29;20195;-75
2023/03/23 09:31:56;;;;;;;9.60;5.30;;;;;;;12.22;63.69;97148.69;4881452;29;20188;-77
2023/03/23 09:34:22;;;;;;;8.57;5.40;;;;;;;12.06;65.45;97152.97;4912421;29;20260;-74
2023/03/23 09:36:49;;;;;;;6.97;5.33;;;;;;;12.02;66.06;97151.44;4896126;29;20255;-76
2023/03/23 09:39:18;;;;;;;7.97;5.97;;;;;;;12.05;65.35;97156.50;4913165;29;20743;-78
2023/03/23 09:42:05;;;;;;;7.67;5.07;;;;;;;12.04;65.57;97149.63;4913034;29;20187;-83
2023/03/23 09:44:35;;;;;;;10.30;6.60;;;;;;;12.06;65.37;97158.16;4896519;29;20197;-78
2023/03/23 09:47:04;;;;;;;8.67;6.10;;;;;;;12.14;64.27;97161.22;4878854;29;20254;-75
2023/03/23 09:49:35;;;;;;;13.30;6.63;;;;;;;12.09;63.79;97153.69;4895952;29;20561;-76
2023/03/23 09:52:14;;;;;;;7.87;5.20;;;;;;;12.17;64.58;97163.69;4895458;29;20296;-73
2023/03/23 09:54:52;;;;;;;9.13;6.00;;;;;;;12.05;64.22;97151.31;4911858;29;20187;-75
2023/03/23 09:57:46;;;;;;;7.67;5.20;;;;;;;12.16;64.64;97157.63;4912988;29;20197;-79
2023/03/23 10:00:29;;;;;;;8.37;5.50;;;;;;;12.04;65.30;97150.47;4879256;29;20199;-76
2023/03/23 10:03:01;;;;;;;8.10;6.00;;;;;;;12.05;65.50;97143.53;4895509;29;20188;-77
2023/03/23 10:05:42;;;;;;;7.23;5.43;;;;;;;11.97;66.66;97148.25;4912943;29;20197;-77
2023/03/23 10:08:14;;;;;;;8.73;6.37;;;;;;;12.04;66.82;97140.09;4911603;29;20201;-80
2023/03/23 10:10:48;;;;;;;9.53;6.07;;;;;;;12.13;66.20;97156.97;4913277;29;20258;-75
2023/03/23 10:13:22;;;;;;;7.00;5.37;;;;;;;12.04;65.44;97147.03;4912269;29;20291;-78
2023/03/23 10:15:49;;;;;;;7.50;5.43;;;;;;;12.04;66.37;97141.84;4915104;29;20210;-75
2023/03/23 10:18:40;;;;;;;12.60;6.90;;;;;;;12.25;66.29;97164.13;4912560;29;20300;-78
2023/03/23 10:21:13;;;;;;;8.80;6.30;;;;;;;12.25;65.02;97161.53;4894362;29;20200;-79
2023/03/23 10:23:54;;;;;;;7.20;5.70;;;;;;;12.31;65.42;97168.16;4912486;29;20195;-75
2023/03/23 10:26:20;;;;;;;8.90;5.93;;;;;;;12.32;65.58;97162.91;4911559;29;20292;-78
2023/03/23 10:28:52;;;;;;;8.10;5.63;;;;;;;12.30;65.40;97161.31;4912051;29;20200;-75
2023/03/23 10:31:38;;;;;;;9.50;5.97;;;;;;;12.24;66.37;97146.88;4895488;29;20206;-77
2023/03/23 10:34:23;;;;;;;13.37;7.73;;;;;;;12.39;65.56;97146.09;4894167;29;20195;-76
2023/03/23 10:37:08;;;;;;;10.30;7.13;;;;;;;12.54;65.31;97153.09;4912406;29;20191;-79
2023/03/23 10:39:46;;;;;;;8.70;5.83;;;;;;;12.54;65.44;97155.69;4911976;29;20223;-75
2023/03/23 10:42:21;;;;;;;7.27;5.73;;;;;;;12.50;65.31;97148.13;4911141;29;20572;-77
2023/03/23 10:44:48;;;;;;;8.50;6.23;;;;;;;12.50;65.03;97133.41;4879683;29;20206;-74
2023/03/23 10:47:15;;;;;;;7.83;6.20;;;;;;;12.64;63.85;97146.50;4862965;29;20277;-75
2023/03/23 10:49:49;;;;;;;9.33;6.43;;;;;;;12.81;64.14;97153.41;4912352;29;20224;-76
2023/03/23 10:52:37;;;;;;;11.83;6.87;;;;;;;12.67;62.81;97140.31;4911563;29;20278;-78
2023/03/23 10:55:03;;;;;;;9.87;6.57;;;;;;;12.70;63.35;97143.59;4910626;29;20684;-75
2023/03/23 10:57:33;;;;;;;7.87;5.93;;;;;;;12.59;61.95;97139.88;4895290;29;20219;-75
2023/03/23 11:00:19;;;;;;;7.70;5.97;;;;;;;12.53;62.21;97122.84;4894031;29;20198;-74
2023/03/23 11:03:00;;;;;;;9.13;6.93;;;;;;;12.64;63.74;97141.31;4895079;29;20191;-78
2023/03/23 11:05:51;;;;;;;11.03;6.70;;;;;;;12.69;62.27;97139.31;4895246;29;20719;-78
2023/03/23 11:08:23;;;;;;;7.83;6.30;;;;;;;12.35;62.49;97125.53;4912125;29;20683;-74
2023/03/23 11:10:49;;;;;;;8.63;6.63;;;;;;;12.37;62.67;97139.28;4894852;29;20211;-81
2023/03/23 11:13:19;;;;;;;8.97;6.90;;;;;;;12.45;62.79;97137.97;4910871;29;20209;-77
2023/03/23 11:15:46;;;;;;;10.40;7.40;;;;;;;12.56;62.48;97133.09;4894040;29;20761;-78
2023/03/23 11:18:18;;;;;;;10.50;7.80;;;;;;;12.63;63.41;97133.59;4894028;29;20186;-74
2023/03/23 11:20:48;;;;;;;10.60;7.90;;;;;;;12.77;63.25;97129.38;4911340;29;20194;-77
2023/03/23 11:23:28;;;;;;;17.73;8.90;;;;;;;13.11;62.27;97119.78;4894688;29;20195;-76
2023/03/23 11:25:56;;;;;;;10.67;6.97;;;;;;;12.99;61.85;97131.63;4910066;29;20655;-75
2023/03/23 11:28:28;;;;;;;10.33;8.43;;;;;;;13.02;62.32;97093.31;4911851;29;20585;-74
2023/03/23 11:30:57;;;;;;;12.17;7.80;;;;;;;13.19;62.09;97113.22;4910340;29;20730;-75
2023/03/23 11:33:24;;;;;;;11.57;7.30;;;;;;;13.19;62.09;97112.41;4894589;29;20204;-75
2023/03/23 11:35:53;;;;;;;10.37;7.23;;;;;;;13.18;62.04;97111.56;4878588;29;20294;-78
2023/03/23 11:38:22;;;;;;;13.30;7.27;;;;;;;13.33;62.03;97117.69;4893586;29;20619;-75
2023/03/23 11:40:50;;;;;;;12.93;7.80;;;;;;;13.32;60.49;97100.38;4911468;29;20560;-77
2023/03/23 11:43:24;;;;;;;8.37;6.63;;;;;;;13.48;59.71;97107.25;4909897;29;20204;-75
2023/03/23 11:45:58;;;;;;;11.83;8.13;;;;;;;13.56;60.19;97099.03;4911486;29;20240;-75
2023/03/23 11:48:46;;;;;;;12.90;8.13;;;;;;;13.72;59.84;97094.63;4877686;29;20254;-78
2023/03/23 11:51:20;;;;;;;10.20;6.97;;;;;;;13.78;58.99;97099.47;4893419;29;20205;-75
2023/03/23 11:54:08;;;;;;;9.70;7.53;;;;;;;13.79;58.85;97088.97;4911392;29;20219;-75
2023/03/23 11:56:37;;;;;;;13.63;8.83;;;;;;;13.62;58.42;97075.25;4893042;29;20235;-78
2023/03/23 11:59:12;;;;;;;11.17;8.33;;;;;;;13.68;57.41;97096.53;4878299;29;20540;-76
2023/03/23 12:01:43;;;;;;;15.57;8.90;;;;;;;13.76;57.72;97091.78;4910894;29;20190;-79